Time,TemperatureF,DewpointF,PressureIn,WindDirection,WindDirectionDegrees,WindSpeedMPH,WindSpeedGustMPH,Humidity,HourlyPrecipIn,Conditions,Clouds,dailyrainin,SoftwareType,DateUTC
2013-12-03 00:00:00,53.9,51.6,29.97,WSW,257,0.0,2.0,92,0.00,,,0.00,Wunderground v.1.15,2013-12-03 08:00:00,
2013-12-03 00:10:00,53.9,51.6,29.96,West,277,0.0,5.0,92,0.00,,,0.00,Wunderground v.1.15,2013-12-03 08:10:00,
2013-12-03 00:15:00,53.9,51.6,29.96,SSW,213,0.0,5.0,92,0.00,,,0.00,Wunderground v.1.15,2013-12-03 08:15:00,
2013-12-03 00:20:00,53.9,51.6,29.96,SSW,202,0.0,4.0,92,0.00,,,0.00,Wunderground v.1.15,2013-12-03 08:20:00,
2013-12-03 00:25:00,53.8,51.2,29.95,NNW,329,0.0,5.0,91,0.00,,,0.00,Wunderground v.1.15,2013-12-03 08:25:00,
2013-12-03 00:30:00,53.8,51.2,29.95,WSW,252,0.0,1.0,91,0.00,,,0.00,Wunderground v.1.15,2013-12-03 08:30:00,
2013-12-03 00:35:00,53.7,51.4,29.94,WSW,244,0.0,4.0,92,0.00,,,0.00,Wunderground v.1.15,2013-12-03 08:35:00,
2013-12-03 00:40:00,53.6,51.3,29.94,WSW,245,0.0,1.0,92,0.00,,,0.00,Wunderground v.1.15,2013-12-03 08:40:00,
2013-12-03 00:45:00,53.5,51.2,29.94,North,355,0.0,3.0,92,0.00,,,0.00,Wunderground v.1.15,2013-12-03 08:45:00,
2013-12-03 00:50:00,53.5,51.2,29.94,WSW,240,0.0,7.0,92,0.00,,,0.00,Wunderground v.1.15,2013-12-03 08:50:00,
2013-12-03 00:55:00,53.5,51.2,29.94,West,273,0.0,7.0,92,0.00,,,0.00,Wunderground v.1.15,2013-12-03 08:55:00,
2013-12-03 01:05:00,53.4,50.8,29.93,WSW,255,0.0,4.0,91,0.00,,,0.00,Wunderground v.1.15,2013-12-03 09:05:00,
2013-12-03 01:10:00,53.4,50.8,29.93,NW,308,0.0,2.0,91,0.00,,,0.00,Wunderground v.1.15,2013-12-03 09:10:00,
2013-12-03 01:15:00,53.3,50.7,29.93,WNW,287,0.0,8.0,91,0.00,,,0.00,Wunderground v.1.15,2013-12-03 09:15:00,
2013-12-03 01:20:00,53.3,50.4,29.94,WSW,252,0.0,4.0,90,0.00,,,0.00,Wunderground v.1.15,2013-12-03 09:20:00,
2013-12-03 01:25:00,53.3,50.4,29.94,NW,304,1.0,5.0,90,0.00,,,0.00,Wunderground v.1.15,2013-12-03 09:25:00,
2013-12-03 01:35:00,53.2,50.0,29.94,NW,323,1.0,6.0,89,0.00,,,0.00,Wunderground v.1.15,2013-12-03 09:35:00,
2013-12-03 01:40:00,53.2,50.0,29.94,WNW,298,1.0,1.0,89,0.00,,,0.00,Wunderground v.1.15,2013-12-03 09:40:00,
2013-12-03 01:45:00,53.2,49.7,29.94,North,10,1.0,3.0,88,0.00,,,0.00,Wunderground v.1.15,2013-12-03 09:45:00,
2013-12-03 01:50:00,53.1,49.3,29.94,WNW,298,1.0,6.0,87,0.00,,,0.00,Wunderground v.1.15,2013-12-03 09:50:00,
2013-12-03 02:00:00,52.8,49.0,29.94,WSW,252,1.0,7.0,87,0.00,,,0.00,Wunderground v.1.15,2013-12-03 10:00:00,
2013-12-03 02:05:00,52.5,48.4,29.94,SSE,165,1.0,7.0,86,0.00,,,0.00,Wunderground v.1.15,2013-12-03 10:05:00,
2013-12-03 02:10:00,52.3,47.9,29.93,NW,308,1.0,1.0,85,0.00,,,0.00,Wunderground v.1.15,2013-12-03 10:10:00,
2013-12-03 02:15:00,52.2,47.8,29.94,NW,313,1.0,2.0,85,0.00,,,0.00,Wunderground v.1.15,2013-12-03 10:15:00,
2013-12-03 02:25:00,52.1,47.1,29.94,NNW,329,1.0,7.0,83,0.00,,,0.00,Wunderground v.1.15,2013-12-03 10:25:00,
2013-12-03 02:30:00,51.9,46.9,29.94,SW,229,1.0,5.0,83,0.00,,,0.00,Wunderground v.1.15,2013-12-03 10:30:00,
2013-12-03 02:35:00,51.7,46.7,29.94,NNW,336,0.0,5.0,83,0.00,,,0.00,Wunderground v.1.15,2013-12-03 10:35:00,
2013-12-03 02:40:00,51.5,46.5,29.94,WNW,299,1.0,1.0,83,0.00,,,0.00,Wunderground v.1.15,2013-12-03 10:40:00,
2013-12-03 02:45:00,51.3,46.3,29.93,NW,310,1.0,5.0,83,0.00,,,0.00,Wunderground v.1.15,2013-12-03 10:45:00,
2013-12-03 02:50:00,51.2,46.2,29.93,NW,309,1.0,1.0,83,0.00,,,0.00,Wunderground v.1.15,2013-12-03 10:50:00,
2013-12-03 02:55:00,51.0,45.7,29.93,WNW,303,1.0,6.0,82,0.00,,,0.00,Wunderground v.1.15,2013-12-03 10:55:00,
2013-12-03 03:00:00,50.8,45.2,29.93,South,188,1.0,1.0,81,0.00,,,0.00,Wunderground v.1.15,2013-12-03 11:00:00,
2013-12-03 03:05:00,50.7,45.1,29.93,West,278,1.0,6.0,81,0.00,,,0.00,Wunderground v.1.15,2013-12-03 11:05:00,
2013-12-03 03:15:00,50.6,44.3,29.93,NW,311,2.0,11.0,79,0.00,,,0.00,Wunderground v.1.15,2013-12-03 11:15:00,
2013-12-03 03:20:00,50.5,43.9,29.93,WSW,256,2.0,2.0,78,0.00,,,0.00,Wunderground v.1.15,2013-12-03 11:20:00,
2013-12-03 03:25:00,50.5,43.2,29.93,WNW,301,2.0,8.0,76,0.00,,,0.00,Wunderground v.1.15,2013-12-03 11:25:00,
2013-12-03 03:30:00,50.4,42.8,29.93,WSW,238,2.0,2.0,75,0.00,,,0.00,Wunderground v.1.15,2013-12-03 11:30:00,
2013-12-03 03:35:00,50.4,42.1,29.93,NNW,336,1.0,9.0,73,0.00,,,0.00,Wunderground v.1.15,2013-12-03 11:35:00,
2013-12-03 03:40:00,50.4,41.7,29.92,West,267,1.0,5.0,72,0.00,,,0.00,Wunderground v.1.15,2013-12-03 11:40:00,
2013-12-03 03:50:00,50.3,40.5,29.92,NW,316,3.0,3.0,69,0.00,,,0.00,Wunderground v.1.15,2013-12-03 11:50:00,
2013-12-03 03:55:00,50.3,40.1,29.92,WNW,301,2.0,10.0,68,0.00,,,0.00,Wunderground v.1.15,2013-12-03 11:55:00,
2013-12-03 04:00:00,50.2,40.4,29.92,NNW,329,1.0,10.0,69,0.00,,,0.00,Wunderground v.1.15,2013-12-03 12:00:00,
2013-12-03 04:05:00,50.0,40.2,29.92,West,259,2.0,10.0,69,0.00,,,0.00,Wunderground v.1.15,2013-12-03 12:05:00,
2013-12-03 04:15:00,49.6,39.5,29.92,North,360,2.0,9.0,68,0.00,,,0.00,Wunderground v.1.15,2013-12-03 12:15:00,
2013-12-03 04:20:00,49.4,39.3,29.92,WNW,300,2.0,2.0,68,0.00,,,0.00,Wunderground v.1.15,2013-12-03 12:20:00,
2013-12-03 04:25:00,49.2,37.9,29.93,NW,305,2.0,7.0,65,0.00,,,0.00,Wunderground v.1.15,2013-12-03 12:25:00,
2013-12-03 04:30:00,49.0,38.5,29.93,WNW,300,2.0,2.0,67,0.00,,,0.00,Wunderground v.1.15,2013-12-03 12:30:00,
2013-12-03 04:35:00,48.7,39.4,29.93,West,265,2.0,13.0,70,0.00,,,0.00,Wunderground v.1.15,2013-12-03 12:35:00,
2013-12-03 04:40:00,48.4,39.4,29.92,West,261,2.0,9.0,71,0.00,,,0.00,Wunderground v.1.15,2013-12-03 12:40:00,
2013-12-03 04:45:00,48.2,39.9,29.92,West,275,1.0,9.0,73,0.00,,,0.00,Wunderground v.1.15,2013-12-03 12:45:00,
2013-12-03 04:50:00,48.0,39.8,29.92,WSW,241,1.0,6.0,73,0.00,,,0.00,Wunderground v.1.15,2013-12-03 12:50:00,
2013-12-03 04:55:00,47.9,39.7,29.93,WSW,254,1.0,6.0,73,0.00,,,0.00,Wunderground v.1.15,2013-12-03 12:55:00,
2013-12-03 05:05:00,47.7,39.5,29.93,WNW,290,2.0,8.0,73,0.00,,,0.00,Wunderground v.1.15,2013-12-03 13:05:00,
2013-12-03 05:10:00,47.6,39.4,29.93,WSW,251,2.0,9.0,73,0.00,,,0.00,Wunderground v.1.15,2013-12-03 13:10:00,
2013-12-03 05:15:00,47.5,39.3,29.93,NNW,338,2.0,9.0,73,0.00,,,0.00,Wunderground v.1.15,2013-12-03 13:15:00,
2013-12-03 05:20:00,47.4,38.8,29.93,WNW,288,2.0,2.0,72,0.00,,,0.00,Wunderground v.1.15,2013-12-03 13:20:00,
2013-12-03 05:25:00,47.2,38.6,29.93,WNW,302,2.0,6.0,72,0.00,,,0.00,Wunderground v.1.15,2013-12-03 13:25:00,
2013-12-03 05:30:00,47.1,38.2,29.93,West,279,2.0,8.0,71,0.00,,,0.00,Wunderground v.1.15,2013-12-03 13:30:00,
2013-12-03 05:40:00,47.2,37.5,29.92,West,278,3.0,3.0,69,0.00,,,0.00,Wunderground v.1.15,2013-12-03 13:40:00,
2013-12-03 05:45:00,47.3,37.3,29.92,WNW,286,1.0,12.0,68,0.00,,,0.00,Wunderground v.1.15,2013-12-03 13:45:00,
2013-12-03 05:50:00,47.4,37.4,29.92,West,267,1.0,5.0,68,0.00,,,0.00,Wunderground v.1.15,2013-12-03 13:50:00,
2013-12-03 06:00:00,47.6,38.3,29.92,West,281,2.0,8.0,70,0.00,,,0.00,Wunderground v.1.15,2013-12-03 14:00:00,
2013-12-03 06:05:00,47.6,38.3,29.91,West,265,2.0,14.0,70,0.00,,,0.00,Wunderground v.1.15,2013-12-03 14:05:00,
2013-12-03 06:10:00,47.6,37.9,29.92,WNW,288,3.0,3.0,69,0.00,,,0.00,Wunderground v.1.15,2013-12-03 14:10:00,
2013-12-03 06:15:00,47.5,37.1,29.92,WNW,298,3.0,14.0,67,0.00,,,0.00,Wunderground v.1.15,2013-12-03 14:15:00,
2013-12-03 06:25:00,47.6,36.0,29.92,NW,313,3.0,12.0,64,0.00,,,0.00,Wunderground v.1.15,2013-12-03 14:25:00,
2013-12-03 06:30:00,47.6,36.0,29.92,WNW,290,3.0,3.0,64,0.00,,,0.00,Wunderground v.1.15,2013-12-03 14:30:00,
2013-12-03 06:35:00,47.5,36.3,29.92,WNW,291,3.0,8.0,65,0.00,,,0.00,Wunderground v.1.15,2013-12-03 14:35:00,
2013-12-03 06:45:00,47.4,36.2,29.92,NNW,331,3.0,4.0,65,0.00,,,0.00,Wunderground v.1.15,2013-12-03 14:45:00,
2013-12-03 06:50:00,47.3,36.1,29.92,WSW,257,3.0,12.0,65,0.00,,,0.00,Wunderground v.1.15,2013-12-03 14:50:00,
2013-12-03 06:55:00,47.3,36.1,29.92,WNW,299,3.0,14.0,65,0.00,,,0.00,Wunderground v.1.15,2013-12-03 14:55:00,
2013-12-03 07:00:00,47.2,36.4,29.92,West,275,3.0,10.0,66,0.00,,,0.00,Wunderground v.1.15,2013-12-03 15:00:00,
2013-12-03 07:10:00,46.9,36.5,29.92,SW,224,4.0,4.0,67,0.00,,,0.00,Wunderground v.1.15,2013-12-03 15:10:00,
2013-12-03 07:20:00,46.8,36.4,29.92,North,360,3.0,3.0,67,0.00,,,0.00,Wunderground v.1.15,2013-12-03 15:20:00,
2013-12-03 07:25:00,46.8,36.4,29.92,WNW,288,2.0,4.0,67,0.00,,,0.00,Wunderground v.1.15,2013-12-03 15:25:00,
2013-12-03 07:30:00,46.7,36.3,29.92,WNW,288,2.0,2.0,67,0.00,,,0.00,Wunderground v.1.15,2013-12-03 15:30:00,
2013-12-03 07:40:00,46.7,36.7,29.92,North,355,3.0,3.0,68,0.00,,,0.00,Wunderground v.1.15,2013-12-03 15:40:00,
2013-12-03 07:45:00,46.6,36.6,29.92,WNW,292,4.0,4.0,68,0.00,,,0.00,Wunderground v.1.15,2013-12-03 15:45:00,
2013-12-03 07:50:00,46.6,36.6,29.92,NNW,345,3.0,3.0,68,0.00,,,0.00,Wunderground v.1.15,2013-12-03 15:50:00,
2013-12-03 07:55:00,46.6,36.6,29.92,WSW,251,2.0,7.0,68,0.00,,,0.00,Wunderground v.1.15,2013-12-03 15:55:00,
2013-12-03 08:05:00,46.6,36.6,29.92,West,275,2.0,2.0,68,0.00,,,0.00,Wunderground v.1.15,2013-12-03 16:05:00,
2013-12-03 08:10:00,46.7,36.7,29.92,West,278,2.0,13.0,68,0.00,,,0.00,Wunderground v.1.15,2013-12-03 16:10:00,
2013-12-03 08:15:00,46.7,36.7,29.92,ESE,110,1.0,13.0,68,0.00,,,0.00,Wunderground v.1.15,2013-12-03 16:15:00,
2013-12-03 08:20:00,46.7,36.7,29.92,West,280,1.0,6.0,68,0.00,,,0.00,Wunderground v.1.15,2013-12-03 16:20:00,
2013-12-03 08:25:00,46.7,36.7,29.92,West,264,2.0,8.0,68,0.00,,,0.00,Wunderground v.1.15,2013-12-03 16:25:00,
2013-12-03 08:35:00,46.9,36.9,29.92,ESE,111,1.0,8.0,68,0.00,,,0.00,Wunderground v.1.15,2013-12-03 16:35:00,
2013-12-03 08:40:00,46.9,36.9,29.93,NW,325,1.0,5.0,68,0.00,,,0.00,Wunderground v.1.15,2013-12-03 16:40:00,
2013-12-03 08:45:00,46.8,36.4,29.92,SSE,168,1.0,5.0,67,0.00,,,0.00,Wunderground v.1.15,2013-12-03 16:45:00,
2013-12-03 08:50:00,46.9,36.1,29.93,WSW,252,1.0,4.0,66,0.00,,,0.00,Wunderground v.1.15,2013-12-03 16:50:00,
2013-12-03 09:00:00,47.0,35.8,29.92,WSW,244,1.0,1.0,65,0.00,,,0.00,Wunderground v.1.15,2013-12-03 17:00:00,
2013-12-03 09:05:00,47.1,35.5,29.92,North,5,1.0,5.0,64,0.00,,,0.00,Wunderground v.1.15,2013-12-03 17:05:00,
2013-12-03 09:10:00,47.1,35.1,29.92,West,281,1.0,1.0,63,0.00,,,0.00,Wunderground v.1.15,2013-12-03 17:10:00,
2013-12-03 09:20:00,47.0,33.8,29.92,NW,309,1.0,1.0,60,0.00,,,0.00,Wunderground v.1.15,2013-12-03 17:20:00,
2013-12-03 09:25:00,47.0,33.0,29.92,WNW,284,1.0,8.0,58,0.00,,,0.00,Wunderground v.1.15,2013-12-03 17:25:00,
2013-12-03 09:35:00,46.8,32.8,29.92,WNW,296,2.0,2.0,58,0.00,,,0.00,Wunderground v.1.15,2013-12-03 17:35:00,
2013-12-03 09:40:00,46.8,32.8,29.92,WNW,299,2.0,8.0,58,0.00,,,0.00,Wunderground v.1.15,2013-12-03 17:40:00,
2013-12-03 09:45:00,46.9,32.9,29.92,WSW,254,2.0,8.0,58,0.00,,,0.00,Wunderground v.1.15,2013-12-03 17:45:00,
2013-12-03 09:50:00,47.0,33.0,29.92,West,269,2.0,2.0,58,0.00,,,0.00,Wunderground v.1.15,2013-12-03 17:50:00,
2013-12-03 09:55:00,47.2,33.2,29.93,NW,322,1.0,6.0,58,0.00,,,0.00,Wunderground v.1.15,2013-12-03 17:55:00,
2013-12-03 10:05:00,47.4,32.9,29.93,WNW,294,1.0,6.0,57,0.00,,,0.00,Wunderground v.1.15,2013-12-03 18:05:00,
2013-12-03 10:10:00,47.4,33.4,29.92,NW,323,2.0,2.0,58,0.00,,,0.00,Wunderground v.1.15,2013-12-03 18:10:00,
2013-12-03 10:15:00,47.6,33.1,29.92,WNW,293,1.0,9.0,57,0.00,,,0.00,Wunderground v.1.15,2013-12-03 18:15:00,
2013-12-03 10:20:00,47.7,33.2,29.92,North,360,1.0,4.0,57,0.00,,,0.00,Wunderground v.1.15,2013-12-03 18:20:00,
2013-12-03 10:30:00,47.5,32.6,29.92,NNW,328,1.0,1.0,56,0.00,,,0.00,Wunderground v.1.15,2013-12-03 18:30:00,
2013-12-03 10:35:00,47.5,32.6,29.92,WSW,249,1.0,6.0,56,0.00,,,0.00,Wunderground v.1.15,2013-12-03 18:35:00,
2013-12-03 10:45:00,47.6,32.2,29.92,WNW,293,1.0,5.0,55,0.00,,,0.00,Wunderground v.1.15,2013-12-03 18:45:00,
2013-12-03 10:50:00,47.7,32.3,29.92,WNW,288,0.0,5.0,55,0.00,,,0.00,Wunderground v.1.15,2013-12-03 18:50:00,
2013-12-03 10:55:00,47.7,32.3,29.92,West,275,1.0,5.0,55,0.00,,,0.00,Wunderground v.1.15,2013-12-03 18:55:00,
2013-12-03 11:00:00,47.7,32.3,29.91,West,275,1.0,1.0,55,0.00,,,0.00,Wunderground v.1.15,2013-12-03 19:00:00,
2013-12-03 11:05:00,47.7,32.8,29.91,West,279,0.0,7.0,56,0.00,,,0.00,Wunderground v.1.15,2013-12-03 19:05:00,
2013-12-03 11:10:00,47.7,32.3,29.91,NW,307,0.0,3.0,55,0.00,,,0.00,Wunderground v.1.15,2013-12-03 19:10:00,
2013-12-03 11:20:00,47.6,32.7,29.91,WNW,300,0.0,6.0,56,0.00,,,0.00,Wunderground v.1.15,2013-12-03 19:20:00,
2013-12-03 11:25:00,47.5,33.0,29.91,West,267,0.0,6.0,57,0.00,,,0.00,Wunderground v.1.15,2013-12-03 19:25:00,
2013-12-03 11:30:00,47.6,32.7,29.91,West,267,0.0,3.0,56,0.00,,,0.00,Wunderground v.1.15,2013-12-03 19:30:00,
2013-12-03 11:40:00,47.4,32.5,29.90,West,260,0.0,2.0,56,0.00,,,0.00,Wunderground v.1.15,2013-12-03 19:40:00,
2013-12-03 11:45:00,47.3,32.8,29.90,West,263,0.0,5.0,57,0.00,,,0.00,Wunderground v.1.15,2013-12-03 19:45:00,
2013-12-03 11:50:00,47.2,32.3,29.90,West,274,0.0,4.0,56,0.00,,,0.00,Wunderground v.1.15,2013-12-03 19:50:00,
2013-12-03 11:55:00,47.2,32.7,29.89,NW,311,1.0,6.0,57,0.00,,,0.00,Wunderground v.1.15,2013-12-03 19:55:00,
2013-12-03 12:00:00,47.3,32.8,29.89,NNW,331,0.0,4.0,57,0.00,,,0.00,Wunderground v.1.15,2013-12-03 20:00:00,
2013-12-03 12:05:00,47.3,32.4,29.89,West,275,1.0,4.0,56,0.00,,,0.00,Wunderground v.1.15,2013-12-03 20:05:00,
2013-12-03 12:15:00,47.3,32.8,29.89,WNW,294,0.0,6.0,57,0.00,,,0.00,Wunderground v.1.15,2013-12-03 20:15:00,
2013-12-03 12:20:00,47.2,32.7,29.89,NNW,344,1.0,1.0,57,0.00,,,0.00,Wunderground v.1.15,2013-12-03 20:20:00,
2013-12-03 12:25:00,47.3,32.8,29.89,WSW,250,1.0,6.0,57,0.00,,,0.00,Wunderground v.1.15,2013-12-03 20:25:00,
2013-12-03 12:35:00,47.4,32.5,29.89,West,273,1.0,5.0,56,0.00,,,0.00,Wunderground v.1.15,2013-12-03 20:35:00,
2013-12-03 12:40:00,47.5,32.6,29.89,West,261,1.0,1.0,56,0.00,,,0.00,Wunderground v.1.15,2013-12-03 20:40:00,
2013-12-03 12:50:00,47.9,32.5,29.89,NW,312,0.0,3.0,55,0.00,,,0.00,Wunderground v.1.15,2013-12-03 20:50:00,
2013-12-03 12:55:00,48.0,32.6,29.88,West,273,1.0,6.0,55,0.00,,,0.00,Wunderground v.1.15,2013-12-03 20:55:00,
2013-12-03 13:00:00,47.9,32.0,29.88,West,279,1.0,1.0,54,0.00,,,0.00,Wunderground v.1.15,2013-12-03 21:00:00,
2013-12-03 13:05:00,47.9,32.0,29.88,NW,317,1.0,6.0,54,0.00,,,0.00,Wunderground v.1.15,2013-12-03 21:05:00,
2013-12-03 13:10:00,47.9,32.0,29.88,West,281,1.0,1.0,54,0.00,,,0.00,Wunderground v.1.15,2013-12-03 21:10:00,
2013-12-03 13:15:00,48.1,32.2,29.87,NW,304,1.0,4.0,54,0.00,,,0.00,Wunderground v.1.15,2013-12-03 21:15:00,
2013-12-03 13:25:00,48.5,31.7,29.87,West,271,1.0,5.0,52,0.00,,,0.00,Wunderground v.1.15,2013-12-03 21:25:00,
2013-12-03 13:30:00,48.7,31.8,29.87,WSW,254,1.0,6.0,52,0.00,,,0.00,Wunderground v.1.15,2013-12-03 21:30:00,
2013-12-03 13:35:00,48.7,31.4,29.88,NW,307,1.0,8.0,51,0.00,,,0.00,Wunderground v.1.15,2013-12-03 21:35:00,
2013-12-03 13:40:00,48.7,31.4,29.88,West,271,1.0,1.0,51,0.00,,,0.00,Wunderground v.1.15,2013-12-03 21:40:00,
2013-12-03 13:50:00,48.5,30.7,29.88,WNW,286,0.0,3.0,50,0.00,,,0.00,Wunderground v.1.15,2013-12-03 21:50:00,
2013-12-03 13:55:00,48.8,31.0,29.87,WNW,294,1.0,3.0,50,0.00,,,0.00,Wunderground v.1.15,2013-12-03 21:55:00,
2013-12-03 14:00:00,49.4,31.5,29.87,SW,225,1.0,4.0,50,0.00,,,0.00,Wunderground v.1.15,2013-12-03 22:00:00,
2013-12-03 14:05:00,50.1,30.6,29.87,South,176,1.0,5.0,47,0.00,,,0.00,Wunderground v.1.15,2013-12-03 22:05:00,
2013-12-03 14:10:00,50.4,30.9,29.87,NW,311,1.0,5.0,47,0.00,,,0.00,Wunderground v.1.15,2013-12-03 22:10:00,
2013-12-03 14:15:00,50.5,31.0,29.88,NW,305,1.0,5.0,47,0.00,,,0.00,Wunderground v.1.15,2013-12-03 22:15:00,
2013-12-03 14:20:00,50.6,31.1,29.87,West,278,1.0,8.0,47,0.00,,,0.00,Wunderground v.1.15,2013-12-03 22:20:00,
2013-12-03 14:30:00,50.9,30.8,29.88,WSW,247,1.0,5.0,46,0.00,,,0.00,Wunderground v.1.15,2013-12-03 22:30:00,
2013-12-03 14:35:00,51.2,30.6,29.87,NW,317,1.0,5.0,45,0.00,,,0.00,Wunderground v.1.15,2013-12-03 22:35:00,
2013-12-03 14:40:00,51.2,31.1,29.88,WSW,238,0.0,2.0,46,0.00,,,0.00,Wunderground v.1.15,2013-12-03 22:40:00,
2013-12-03 14:50:00,50.6,31.6,29.87,West,263,1.0,1.0,48,0.00,,,0.00,Wunderground v.1.15,2013-12-03 22:50:00,
2013-12-03 14:55:00,50.3,30.8,29.88,NW,307,1.0,6.0,47,0.00,,,0.00,Wunderground v.1.15,2013-12-03 22:55:00,
2013-12-03 15:05:00,50.0,31.6,29.88,WNW,284,1.0,7.0,49,0.00,,,0.00,Wunderground v.1.15,2013-12-03 23:05:00,
2013-12-03 15:10:00,49.9,32.0,29.88,WNW,283,0.0,3.0,50,0.00,,,0.00,Wunderground v.1.15,2013-12-03 23:10:00,
2013-12-03 15:15:00,49.8,31.9,29.88,WNW,283,0.0,3.0,50,0.00,,,0.00,Wunderground v.1.15,2013-12-03 23:15:00,
2013-12-03 15:25:00,49.5,30.1,29.88,NNW,338,1.0,2.0,47,0.00,,,0.00,Wunderground v.1.15,2013-12-03 23:25:00,
2013-12-03 15:30:00,49.5,30.1,29.88,WNW,300,1.0,4.0,47,0.00,,,0.00,Wunderground v.1.15,2013-12-03 23:30:00,
2013-12-03 15:40:00,49.3,29.9,29.88,WNW,298,0.0,4.0,47,0.00,,,0.00,Wunderground v.1.15,2013-12-03 23:40:00,
2013-12-03 15:45:00,49.1,29.7,29.88,WNW,298,0.0,4.0,47,0.00,,,0.00,Wunderground v.1.15,2013-12-03 23:45:00,
2013-12-03 15:50:00,49.0,30.1,29.88,WNW,298,0.0,3.0,48,0.00,,,0.00,Wunderground v.1.15,2013-12-03 23:50:00,
2013-12-03 15:55:00,48.9,30.6,29.88,WNW,298,0.0,3.0,49,0.00,,,0.00,Wunderground v.1.15,2013-12-03 23:55:00,
2013-12-03 16:00:00,48.8,30.5,29.88,WNW,298,0.0,1.0,49,0.00,,,0.00,Wunderground v.1.15,2013-12-04 00:00:00,
2013-12-03 16:10:00,48.6,31.3,29.88,WNW,298,0.0,1.0,51,0.00,,,0.00,Wunderground v.1.15,2013-12-04 00:10:00,
2013-12-03 16:15:00,48.5,31.7,29.88,WNW,298,0.0,1.0,52,0.00,,,0.00,Wunderground v.1.15,2013-12-04 00:15:00,
2013-12-03 16:20:00,48.3,31.5,29.88,WNW,298,0.0,0.0,52,0.00,,,0.00,Wunderground v.1.15,2013-12-04 00:20:00,
2013-12-03 16:25:00,48.0,32.1,29.88,WNW,298,0.0,1.0,54,0.00,,,0.00,Wunderground v.1.15,2013-12-04 00:25:00,
2013-12-03 16:30:00,47.6,31.8,29.88,WNW,298,0.0,0.0,54,0.00,,,0.00,Wunderground v.1.15,2013-12-04 00:30:00,
2013-12-03 16:35:00,47.2,31.8,29.88,WNW,298,0.0,0.0,55,0.00,,,0.00,Wunderground v.1.15,2013-12-04 00:35:00,
2013-12-03 16:45:00,46.5,32.1,29.88,WNW,298,0.0,1.0,57,0.00,,,0.00,Wunderground v.1.15,2013-12-04 00:45:00,
2013-12-03 16:50:00,46.1,32.1,29.88,WNW,298,0.0,1.0,58,0.00,,,0.00,Wunderground v.1.15,2013-12-04 00:50:00,
2013-12-03 16:55:00,45.6,32.1,29.88,WNW,298,0.0,1.0,59,0.00,,,0.00,Wunderground v.1.15,2013-12-04 00:55:00,
2013-12-03 17:00:00,45.1,31.6,29.88,NW,306,0.0,1.0,59,0.00,,,0.00,Wunderground v.1.15,2013-12-04 01:00:00,
2013-12-03 17:10:00,44.5,31.9,29.88,NW,306,0.0,2.0,61,0.00,,,0.00,Wunderground v.1.15,2013-12-04 01:10:00,
2013-12-03 17:15:00,44.0,31.8,29.88,NW,306,0.0,2.0,62,0.00,,,0.00,Wunderground v.1.15,2013-12-04 01:15:00,
2013-12-03 17:20:00,43.7,31.5,29.88,NW,306,0.0,1.0,62,0.00,,,0.00,Wunderground v.1.15,2013-12-04 01:20:00,
2013-12-03 17:25:00,43.4,31.6,29.89,NW,306,0.0,1.0,63,0.00,,,0.00,Wunderground v.1.15,2013-12-04 01:25:00,
2013-12-03 17:30:00,43.3,31.5,29.89,NW,306,0.0,0.0,63,0.00,,,0.00,Wunderground v.1.15,2013-12-04 01:30:00,
2013-12-03 17:35:00,43.2,31.8,29.89,NW,306,0.0,0.0,64,0.00,,,0.00,Wunderground v.1.15,2013-12-04 01:35:00,
2013-12-03 17:40:00,43.0,31.6,29.89,NW,306,0.0,0.0,64,0.00,,,0.00,Wunderground v.1.15,2013-12-04 01:40:00,
2013-12-03 17:45:00,43.0,31.3,29.89,NW,306,0.0,0.0,63,0.00,,,0.00,Wunderground v.1.15,2013-12-04 01:45:00,
2013-12-03 17:55:00,43.0,31.6,29.89,NW,306,0.0,1.0,64,0.00,,,0.00,Wunderground v.1.15,2013-12-04 01:55:00,
2013-12-03 18:00:00,43.1,31.4,29.90,NW,306,0.0,1.0,63,0.00,,,0.00,Wunderground v.1.15,2013-12-04 02:00:00,
2013-12-03 18:05:00,43.2,31.4,29.90,NW,306,0.0,1.0,63,0.00,,,0.00,Wunderground v.1.15,2013-12-04 02:05:00,
2013-12-03 18:15:00,43.2,31.4,29.90,NW,306,0.0,0.0,63,0.00,,,0.00,Wunderground v.1.15,2013-12-04 02:15:00,
2013-12-03 18:20:00,42.9,31.6,29.90,NW,306,0.0,0.0,64,0.00,,,0.00,Wunderground v.1.15,2013-12-04 02:20:00,
2013-12-03 18:30:00,43.7,31.5,29.90,NW,306,0.0,1.0,62,0.00,,,0.00,Wunderground v.1.15,2013-12-04 02:30:00,
2013-12-03 18:35:00,44.1,31.5,29.90,NW,306,0.0,2.0,61,0.00,,,0.00,Wunderground v.1.15,2013-12-04 02:35:00,
2013-12-03 18:40:00,44.1,31.5,29.90,NW,306,0.0,3.0,61,0.00,,,0.00,Wunderground v.1.15,2013-12-04 02:40:00,
2013-12-03 18:45:00,43.1,31.7,29.90,NW,306,0.0,3.0,64,0.00,,,0.00,Wunderground v.1.15,2013-12-04 02:45:00,
2013-12-03 18:55:00,42.0,31.5,29.90,NW,306,0.0,1.0,66,0.00,,,0.00,Wunderground v.1.15,2013-12-04 02:55:00,
2013-12-03 19:00:00,42.1,31.2,29.90,NW,306,0.0,1.0,65,0.00,,,0.00,Wunderground v.1.15,2013-12-04 03:00:00,
2013-12-03 19:05:00,42.5,31.6,29.90,NW,306,0.0,2.0,65,0.00,,,0.00,Wunderground v.1.15,2013-12-04 03:05:00,
2013-12-03 19:10:00,43.1,31.4,29.91,NW,326,0.0,1.0,63,0.00,,,0.00,Wunderground v.1.15,2013-12-04 03:10:00,
2013-12-03 19:15:00,43.4,30.0,29.91,NW,325,0.0,1.0,59,0.00,,,0.00,Wunderground v.1.15,2013-12-04 03:15:00,
2013-12-03 19:25:00,44.0,28.9,29.91,ENE,64,0.0,2.0,55,0.00,,,0.00,Wunderground v.1.15,2013-12-04 03:25:00,
2013-12-03 19:30:00,44.1,28.5,29.91,ENE,64,0.0,2.0,54,0.00,,,0.00,Wunderground v.1.15,2013-12-04 03:30:00,
2013-12-03 19:35:00,44.0,28.0,29.91,ENE,64,0.0,2.0,53,0.00,,,0.00,Wunderground v.1.15,2013-12-04 03:35:00,
2013-12-03 19:40:00,43.8,27.8,29.91,ENE,64,0.0,1.0,53,0.00,,,0.00,Wunderground v.1.15,2013-12-04 03:40:00,
2013-12-03 19:45:00,43.7,26.3,29.91,WNW,291,0.0,1.0,50,0.00,,,0.00,Wunderground v.1.15,2013-12-04 03:45:00,
2013-12-03 19:55:00,43.7,24.8,29.92,WNW,291,0.0,4.0,47,0.00,,,0.00,Wunderground v.1.15,2013-12-04 03:55:00,
2013-12-03 20:00:00,44.3,24.8,29.92,WNW,291,0.0,3.0,46,0.00,,,0.00,Wunderground v.1.15,2013-12-04 04:00:00,
2013-12-03 20:05:00,44.5,23.4,29.91,NNE,13,1.0,8.0,43,0.00,,,0.00,Wunderground v.1.15,2013-12-04 04:05:00,
2013-12-03 20:10:00,44.7,23.5,29.92,NNE,15,0.0,3.0,43,0.00,,,0.00,Wunderground v.1.15,2013-12-04 04:10:00,
2013-12-03 20:20:00,44.8,23.1,29.92,WNW,296,0.0,2.0,42,0.00,,,0.00,Wunderground v.1.15,2013-12-04 04:20:00,
2013-12-03 20:25:00,44.2,22.0,29.92,WNW,296,0.0,2.0,41,0.00,,,0.00,Wunderground v.1.15,2013-12-04 04:25:00,
2013-12-03 20:30:00,43.9,21.7,29.92,WNW,295,0.0,0.0,41,0.00,,,0.00,Wunderground v.1.15,2013-12-04 04:30:00,
2013-12-03 20:35:00,43.8,21.0,29.92,WNW,295,0.0,3.0,40,0.00,,,0.00,Wunderground v.1.15,2013-12-04 04:35:00,
2013-12-03 20:40:00,43.7,22.1,29.92,North,355,0.0,0.0,42,0.00,,,0.00,Wunderground v.1.15,2013-12-04 04:40:00,
2013-12-03 20:50:00,43.7,20.3,29.93,NNW,332,0.0,3.0,39,0.00,,,0.00,Wunderground v.1.15,2013-12-04 04:50:00,
2013-12-03 20:55:00,43.8,20.4,29.93,NE,34,0.0,3.0,39,0.00,,,0.00,Wunderground v.1.15,2013-12-04 04:55:00,
2013-12-03 21:00:00,43.8,20.4,29.93,NE,34,0.0,1.0,39,0.00,,,0.00,Wunderground v.1.15,2013-12-04 05:00:00,
2013-12-03 21:05:00,43.6,20.2,29.93,NE,34,0.0,1.0,39,0.00,,,0.00,Wunderground v.1.15,2013-12-04 05:05:00,
2013-12-03 21:10:00,43.3,20.6,29.93,NE,34,0.0,1.0,40,0.00,,,0.00,Wunderground v.1.15,2013-12-04 05:10:00,
2013-12-03 21:15:00,43.1,21.0,29.94,WNW,302,0.0,1.0,41,0.00,,,0.00,Wunderground v.1.15,2013-12-04 05:15:00,
2013-12-03 21:20:00,42.8,21.3,29.94,WNW,302,0.0,1.0,42,0.00,,,0.00,Wunderground v.1.15,2013-12-04 05:20:00,
2013-12-03 21:25:00,42.3,21.4,29.94,WNW,302,0.0,1.0,43,0.00,,,0.00,Wunderground v.1.15,2013-12-04 05:25:00,
2013-12-03 21:30:00,41.9,22.1,29.94,WNW,302,0.0,1.0,45,0.00,,,0.00,Wunderground v.1.15,2013-12-04 05:30:00,
2013-12-03 21:35:00,41.5,22.2,29.94,WNW,302,0.0,1.0,46,0.00,,,0.00,Wunderground v.1.15,2013-12-04 05:35:00,
2013-12-03 21:40:00,41.1,21.9,29.94,WNW,302,0.0,1.0,46,0.00,,,0.00,Wunderground v.1.15,2013-12-04 05:40:00,
2013-12-03 21:45:00,40.8,22.1,29.95,WNW,302,0.0,2.0,47,0.00,,,0.00,Wunderground v.1.15,2013-12-04 05:45:00,
2013-12-03 21:50:00,40.7,21.5,29.94,WNW,302,0.0,1.0,46,0.00,,,0.00,Wunderground v.1.15,2013-12-04 05:50:00,
2013-12-03 21:55:00,40.9,21.7,29.94,WNW,302,0.0,1.0,46,0.00,,,0.00,Wunderground v.1.15,2013-12-04 05:55:00,
2013-12-03 22:05:00,41.0,21.8,29.95,WNW,302,0.0,1.0,46,0.00,,,0.00,Wunderground v.1.15,2013-12-04 06:05:00,
2013-12-03 22:10:00,40.9,22.2,29.95,WNW,302,0.0,1.0,47,0.00,,,0.00,Wunderground v.1.15,2013-12-04 06:10:00,
2013-12-03 22:15:00,40.7,22.5,29.95,WNW,302,0.0,1.0,48,0.00,,,0.00,Wunderground v.1.15,2013-12-04 06:15:00,
2013-12-03 22:20:00,40.6,22.9,29.95,WNW,302,0.0,1.0,49,0.00,,,0.00,Wunderground v.1.15,2013-12-04 06:20:00,
2013-12-03 22:25:00,40.4,24.1,29.95,WNW,302,0.0,1.0,52,0.00,,,0.00,Wunderground v.1.15,2013-12-04 06:25:00,
2013-12-03 22:35:00,39.7,25.3,29.95,WNW,302,0.0,1.0,56,0.00,,,0.00,Wunderground v.1.15,2013-12-04 06:35:00,
2013-12-03 22:40:00,39.5,25.9,29.95,WNW,302,0.0,1.0,58,0.00,,,0.00,Wunderground v.1.15,2013-12-04 06:40:00,
2013-12-03 22:45:00,39.3,26.6,29.95,WNW,302,0.0,1.0,60,0.00,,,0.00,Wunderground v.1.15,2013-12-04 06:45:00,
2013-12-03 22:50:00,39.1,27.6,29.95,WNW,302,0.0,1.0,63,0.00,,,0.00,Wunderground v.1.15,2013-12-04 06:50:00,
2013-12-03 23:00:00,39.4,29.0,29.95,WNW,302,0.0,1.0,66,0.00,,,0.00,Wunderground v.1.15,2013-12-04 07:00:00,
2013-12-03 23:05:00,39.2,29.2,29.95,WNW,302,0.0,1.0,67,0.00,,,0.00,Wunderground v.1.15,2013-12-04 07:05:00,
2013-12-03 23:10:00,39.1,29.8,29.95,WNW,302,0.0,1.0,69,0.00,,,0.00,Wunderground v.1.15,2013-12-04 07:10:00,
2013-12-03 23:15:00,39.1,29.4,29.95,WNW,302,0.0,1.0,68,0.00,,,0.00,Wunderground v.1.15,2013-12-04 07:15:00,
2013-12-03 23:20:00,38.9,29.2,29.96,WNW,302,0.0,1.0,68,0.00,,,0.00,Wunderground v.1.15,2013-12-04 07:20:00,
2013-12-03 23:30:00,38.8,29.1,29.96,WNW,302,0.0,1.0,68,0.00,,,0.00,Wunderground v.1.15,2013-12-04 07:30:00,
2013-12-03 23:35:00,38.7,28.3,29.96,WNW,302,0.0,1.0,66,0.00,,,0.00,Wunderground v.1.15,2013-12-04 07:35:00,
2013-12-03 23:40:00,38.7,27.9,29.97,WNW,302,0.0,0.0,65,0.00,,,0.00,Wunderground v.1.15,2013-12-04 07:40:00,
2013-12-03 23:45:00,38.8,26.9,29.97,WNW,302,0.0,1.0,62,0.00,,,0.00,Wunderground v.1.15,2013-12-04 07:45:00,
2013-12-03 23:55:00,38.9,26.6,29.97,WNW,302,0.0,1.0,61,0.00,,,0.00,Wunderground v.1.15,2013-12-04 07:55:00,